Hamilton, New York
Current Conditions -  °F | °C
As of 7:53 AM on Thursday 30 Oct 2014 (Local Time) from KRME Reporting Station
Overcast Overcast  
Wind Chill: 39°   Ceiling: 1700
Heat Index: 43°   Visibility: 10mi
Dew Point: 41°   Wind: 7mph
Humidity: 93%   Direction: 320°NW
Pressure: 30"   Gusts: NA
Location:  42.83°N, 75.54°W
Report Text: KRME 301153Z 32006KT 10SM SCT010 OVC017 06/05 A3000 RMK AO2 SLP161 60003 70003 T00610050 10083 20050 53011
Loading
Personal Weather Stations






























Interactive Weather Map
Tropical Storm Tracking
New forecast layout! Learn more

10-Day Weather Forecast

Advertisements
Track Severe Weather on mobile